Strona główna
METAR-TAF:

METAR-TAF

Lotnisko :

Port lotniczy Cardiff

Cardiff, Walia

Szerokość geograficzna: 51-24N, Długość geograficzna: 003-21W, wysokość: 67 m

Aktualna obserwacja pogody

Raport powstał 38 minut temu, godzina 08:50 UTC
Wiatr 9 kt od północny zachód
Temperatura 12°C
Wilgotność 71%
Ciśnienie 1007 hPa
Widzialność 10 km lub więcej
Mało chmury na wysokości 3000 ft

METAR: EGFF 040850Z 32009KT 9999 FEW030 12/07 Q1007

czas: 10:28 (09:28 UTC)

Prognoza

Raport powstał 4 godziny i 29 minut temu, godzina 04:59 UTC
Prognoza ważna od 04 godzina 06 UTC do 05 godzina 06 UTC
Wiatr 9 kt od północny wschód
Widzialność 10 km lub więcej
Mało chmury na wysokości 1500 ft
Rozproszone chmury na wysokości 3000 ft
Stopniowe zmiany
od 04 godzina 09 UTC do 04 godzina 12 UTC
Wiatr 10 kt od zachodnio-północny zachód
Prawdopodobieństwo 30% :
Przejściowo
od 04 godzina 18 UTC do 04 godzina 24 UTC
Przerywane chmury na wysokości 1400 ft

TAF: EGFF 040459Z 0406/0506 04009KT 9999 FEW015 SCT030 BECMG 0409/0412 29010KT PROB30 TEMPO 0418/0424 BKN014

Obserwacja i prognoza pogody dla ponad 4000 lotnisk (raport METAR i TAF).

Dostępne stacje oznaczono żółtymi i czerwonymi punktami na mapie.

Najedź kursorem aby zobaczyć nazwę stacji.

Kliknij aby zobaczyć obserwacje i prognozy pogody.

Aby zmienić mapę: kliknij na zielony przycisk z czarnym krzyżykiem, aby powiększyć; na zielony przycisk z myślnikiem, aby pomniejszyć; na zielone strzałki, aby przejść do map sąsiednich.


METAR-TAF: